Portada
METAR-TAF:

METAR-TAF

Aeroports :

Aeroport de Gran Canària

Gran Canària, Espanya

latitud: 27-56N, longitud: 015-23W, altitud: 23 m

Observació

L'informe es va fer fa 39 minuts, a les 09:00 UTC
Vent 17 kt del Nord
Temperatura 18°C
Humitat 68%
Pressió 1016 hPa
Visibilitat 10 km o més
Núvols disperses a una alçada de 2500 ft

METAR: GCLP 260900Z 36017KT 9999 SCT025 18/12 Q1016 NOSIG

Hora: 09:39 (09:39 UTC)

Pronòstic

L'informe es va fer fa 1 hora i 39 minuts, a les 08:00 UTC
Pronòstic vàlid del 26 a les 09 UTC al 27 a les 09 UTC
Vent 16 kt del Nord
Visibilitat 10 km o més
Núvols disperses a una alçada de 2500 ft
Probabilitat 40% :
Temporalment
l' 26 a les 09 UTC al 26 a les 18 UTC
Vent 18 kt del Nord amb ràfegues de 28 kt
Probabilitat 30% :
Temporalment
l' 26 a les 15 UTC al 26 a les 20 UTC
pluja

TAF: GCLP 260800Z 2609/2709 35016KT 9999 SCT025 TX19/2614Z TN15/2707Z PROB40 TEMPO 2609/2618 35018G28KT PROB30 TEMPO 2615/2620 RA

Observacions i pronòstics meteorològics de més de 4000 aeroports (METAR i TAF).

Les estacions disponibles són els punts grocs i vermells al mapa.

Posi el ratolí al punt desitjat per veure el nom de l'estació.

Feu clic per veure les observacions i els pronòstics meteorològics.

Per canviar el mapa: feu clic els botons verds amb una creu de color negre per apropar; al botó verd amb un guió per allunyar la imatge; o en les fletxes verdes per a mapes adjacents.


METAR-TAF: